createdAt,value
2023-03-14T00:00:47.365Z,3.45
2023-03-14T00:01:50.004Z,5.10
2023-03-14T00:02:53.963Z,4.36
2023-03-14T00:03:57.221Z,4.00
2023-03-14T00:05:01.017Z,3.10
2023-03-14T00:06:04.934Z,4.70
2023-03-14T00:07:07.349Z,3.60
2023-03-14T00:08:11.085Z,3.90
2023-03-14T00:09:14.305Z,3.90
2023-03-14T00:10:17.995Z,3.60
2023-03-14T00:11:21.367Z,4.50
2023-03-14T00:12:24.314Z,3.30
2023-03-14T00:13:28.399Z,4.00
2023-03-14T00:14:32.727Z,3.10
2023-03-14T00:15:35.604Z,3.80
2023-03-14T00:16:39.797Z,3.30
2023-03-14T00:17:43.763Z,3.40
2023-03-14T00:18:48.374Z,4.40
2023-03-14T00:19:52.905Z,3.60
2023-03-14T00:21:00.496Z,3.00
2023-03-14T00:22:03.332Z,3.20
2023-03-14T00:23:06.080Z,5.09
2023-03-14T00:24:09.044Z,2.20
2023-03-14T00:25:13.534Z,3.09
2023-03-14T00:26:18.778Z,3.90
2023-03-14T00:27:21.289Z,0.10
2023-03-14T00:28:23.854Z,3.70
2023-03-14T00:29:26.428Z,3.60
2023-03-14T00:30:29.337Z,3.70
2023-03-14T00:31:32.928Z,3.30
2023-03-14T00:32:36.543Z,4.00
2023-03-14T00:33:39.285Z,4.27
2023-03-14T00:34:42.217Z,4.10
2023-03-14T00:37:06.755Z,3.80
2023-03-14T00:38:09.532Z,3.50
2023-03-14T00:39:13.721Z,2.90
2023-03-14T00:40:16.730Z,4.00
2023-03-14T00:41:24.350Z,2.80
2023-03-14T00:42:28.062Z,4.00
2023-03-14T00:43:30.629Z,3.00
2023-03-14T00:44:34.026Z,2.70
2023-03-14T00:45:36.830Z,1.70
2023-03-14T00:46:40.815Z,3.18
2023-03-14T00:47:45.346Z,3.20
2023-03-14T00:48:47.849Z,4.10
2023-03-14T00:49:51.458Z,3.60
2023-03-14T00:50:55.206Z,3.40
2023-03-14T00:51:59.881Z,2.70
2023-03-14T00:53:03.023Z,3.70
2023-03-14T00:54:07.498Z,3.18
2023-03-14T00:55:10.308Z,3.20
2023-03-14T00:56:13.406Z,3.10
2023-03-14T00:57:17.121Z,3.73
2023-03-14T00:58:22.602Z,2.20
2023-03-14T00:59:25.220Z,3.70
2023-03-14T01:00:28.294Z,3.73
2023-03-14T01:01:31.071Z,2.70
2023-03-14T01:02:33.789Z,3.09
2023-03-14T01:03:37.343Z,3.80
2023-03-14T01:04:39.904Z,3.60
2023-03-14T01:05:42.740Z,3.30
2023-03-14T01:06:45.553Z,2.30
2023-03-14T01:07:48.898Z,3.30
2023-03-14T01:08:52.087Z,3.40
2023-03-14T01:09:55.464Z,3.20
2023-03-14T01:10:58.371Z,2.30
2023-03-14T01:12:00.814Z,3.50
2023-03-14T01:13:03.571Z,3.50
2023-03-14T01:14:06.348Z,3.36
2023-03-14T01:15:10.626Z,3.20
2023-03-14T01:16:14.988Z,3.40
2023-03-14T01:17:18.236Z,3.80
2023-03-14T01:18:20.701Z,4.20
2023-03-14T01:19:23.335Z,3.50
2023-03-14T01:20:25.998Z,3.80
2023-03-14T01:21:31.996Z,2.80
2023-03-14T01:22:35.214Z,2.60
2023-03-14T01:23:38.914Z,3.00
2023-03-14T01:24:41.999Z,2.90
2023-03-14T01:25:45.447Z,3.45
2023-03-14T01:26:48.964Z,3.50
2023-03-14T01:27:52.213Z,2.30
2023-03-14T01:28:55.533Z,2.50
2023-03-14T01:29:59.329Z,2.20
2023-03-14T01:31:07.013Z,2.80
2023-03-14T01:32:10.942Z,3.60
2023-03-14T01:33:16.366Z,2.60
2023-03-14T01:34:19.951Z,3.30
2023-03-14T01:35:24.478Z,3.00
2023-03-14T01:36:27.677Z,3.10
2023-03-14T01:37:31.017Z,2.70
2023-03-14T01:38:34.884Z,2.90
2023-03-14T01:39:38.470Z,2.40
2023-03-14T01:40:46.015Z,1.40
2023-03-14T01:41:49.290Z,2.80
2023-03-14T01:42:56.366Z,1.64
2023-03-14T01:43:58.902Z,2.60
2023-03-14T01:45:01.896Z,2.55
2023-03-14T01:47:20.659Z,3.50
2023-03-14T01:48:23.045Z,2.60
2023-03-14T01:49:31.863Z,2.80
2023-03-14T01:50:37.016Z,2.10
2023-03-14T01:51:49.214Z,1.50
2023-03-14T01:52:53.216Z,2.60
2023-03-14T01:55:14.696Z,0.00
2023-03-14T01:56:19.324Z,2.10
2023-03-14T01:57:40.239Z,2.50
2023-03-14T01:58:43.845Z,2.40
2023-03-14T01:59:53.055Z,1.90
2023-03-14T02:00:57.443Z,0.00
2023-03-14T02:02:00.459Z,2.80
2023-03-14T02:03:12.188Z,2.40
2023-03-14T02:04:15.034Z,1.10
2023-03-14T02:05:20.880Z,1.80
2023-03-14T02:06:29.175Z,2.20
2023-03-14T02:08:51.673Z,2.00
2023-03-14T02:09:58.549Z,2.40
2023-03-14T02:11:03.187Z,1.40
2023-03-14T02:12:26.295Z,2.00
2023-03-14T02:13:31.212Z,1.80
2023-03-14T02:14:38.609Z,1.00
2023-03-14T02:15:54.816Z,1.60
2023-03-14T02:18:21.837Z,0.50
2023-03-14T02:20:12.634Z,2.20
2023-03-14T02:21:21.124Z,0.20
2023-03-14T02:22:24.103Z,2.30
2023-03-14T02:23:48.294Z,2.10
2023-03-14T02:25:16.986Z,1.20
2023-03-14T02:26:38.741Z,1.40
2023-03-14T02:27:41.505Z,1.50
2023-03-14T02:28:44.250Z,2.64
2023-03-14T02:29:56.142Z,1.64
2023-03-14T02:30:59.503Z,1.80
2023-03-14T02:32:02.345Z,1.80
2023-03-14T02:34:20.418Z,2.00
2023-03-14T02:35:24.206Z,1.80
2023-03-14T02:36:27.432Z,1.20
2023-03-14T02:37:37.289Z,1.60
2023-03-14T02:40:19.618Z,1.40
2023-03-14T02:41:23.282Z,0.90
2023-03-14T02:42:27.612Z,1.80
2023-03-14T02:43:30.600Z,1.70
2023-03-14T02:44:37.078Z,1.80
2023-03-14T02:45:47.178Z,2.00
2023-03-14T02:46:53.175Z,1.80
2023-03-14T02:47:58.567Z,1.20
2023-03-14T02:49:03.442Z,1.40
2023-03-14T02:51:22.284Z,1.00
2023-03-14T02:52:24.927Z,0.70
2023-03-14T02:54:43.166Z,1.80
2023-03-14T02:55:46.960Z,1.80
2023-03-14T02:56:50.530Z,2.10
2023-03-14T02:57:53.669Z,1.60
2023-03-14T02:58:58.050Z,1.20
2023-03-14T03:00:04.577Z,1.80
2023-03-14T03:01:09.091Z,1.20
2023-03-14T03:02:11.891Z,2.00
2023-03-14T03:03:15.764Z,1.90
2023-03-14T03:04:18.556Z,1.40
2023-03-14T03:05:22.255Z,2.70
2023-03-14T03:06:25.321Z,1.09
2023-03-14T03:07:28.036Z,1.70
2023-03-14T03:08:32.369Z,1.80
2023-03-14T03:10:39.831Z,1.40
2023-03-14T03:11:42.643Z,1.10
2023-03-14T03:12:47.384Z,1.10
2023-03-14T03:13:50.484Z,2.00
2023-03-14T03:14:53.920Z,1.80
2023-03-14T03:15:56.382Z,1.80
2023-03-14T03:17:00.700Z,1.73
2023-03-14T03:18:03.901Z,1.40
2023-03-14T03:19:07.509Z,1.30
2023-03-14T03:20:10.907Z,1.80
2023-03-14T03:21:16.861Z,2.40
2023-03-14T03:22:20.455Z,0.90
2023-03-14T03:23:23.633Z,0.90
2023-03-14T03:24:26.850Z,0.70
2023-03-14T03:25:31.163Z,1.50
2023-03-14T03:26:36.462Z,1.50
2023-03-14T03:27:42.200Z,2.20
2023-03-14T03:28:45.068Z,0.60
2023-03-14T03:29:48.656Z,1.10
2023-03-14T03:30:52.710Z,2.20
2023-03-14T03:31:55.301Z,0.70
2023-03-14T03:32:58.640Z,1.70
2023-03-14T03:34:01.320Z,1.50
2023-03-14T03:35:05.965Z,0.80
2023-03-14T03:36:11.724Z,1.60
2023-03-14T03:37:15.451Z,1.20
2023-03-14T03:38:18.025Z,0.00
2023-03-14T03:39:20.898Z,0.73
2023-03-14T03:40:23.721Z,2.00
2023-03-14T03:41:26.699Z,1.60
2023-03-14T03:42:29.474Z,2.09
2023-03-14T03:43:32.171Z,2.00
2023-03-14T03:44:35.286Z,1.00
2023-03-14T03:45:37.892Z,1.18
2023-03-14T03:46:41.207Z,0.90
2023-03-14T03:47:45.031Z,0.90
2023-03-14T03:48:47.760Z,1.64
2023-03-14T03:49:50.520Z,1.30
2023-03-14T03:50:53.336Z,0.73
2023-03-14T03:51:58.441Z,0.80
2023-03-14T03:53:01.078Z,1.70
2023-03-14T03:54:03.888Z,1.20
2023-03-14T03:55:09.139Z,1.50
2023-03-14T03:56:12.307Z,1.80
2023-03-14T03:57:15.329Z,0.70
2023-03-14T03:58:18.148Z,1.60
2023-03-14T03:59:21.284Z,1.09
2023-03-14T04:00:24.328Z,1.30
2023-03-14T04:01:27.914Z,0.70
2023-03-14T04:02:30.905Z,1.40
2023-03-14T04:03:36.973Z,1.60
2023-03-14T04:04:39.792Z,2.20
2023-03-14T04:05:42.729Z,1.64
2023-03-14T04:06:46.356Z,0.80
2023-03-14T04:07:49.103Z,1.27
2023-03-14T04:08:54.792Z,1.80
2023-03-14T04:10:15.321Z,1.20
2023-03-14T04:11:19.853Z,1.00
2023-03-14T04:12:24.397Z,1.40
2023-03-14T04:13:37.262Z,0.90
2023-03-14T04:14:41.622Z,2.00
2023-03-14T04:15:46.250Z,1.80
2023-03-14T04:16:51.859Z,0.60
2023-03-14T04:17:59.420Z,1.70
2023-03-14T04:19:02.820Z,1.40
2023-03-14T04:20:10.272Z,1.20
2023-03-14T04:21:13.460Z,1.80
2023-03-14T04:22:18.071Z,1.10
2023-03-14T04:23:25.750Z,0.80
2023-03-14T04:24:28.660Z,0.70
2023-03-14T04:25:33.149Z,1.90
2023-03-14T04:26:38.197Z,1.40
2023-03-14T04:27:40.998Z,1.60
2023-03-14T04:28:46.467Z,0.90
2023-03-14T04:29:49.258Z,1.00
2023-03-14T04:30:53.775Z,1.00
2023-03-14T04:31:58.686Z,1.60
2023-03-14T04:33:01.746Z,2.00
2023-03-14T04:34:06.370Z,0.80
2023-03-14T04:35:13.400Z,1.70
2023-03-14T04:36:16.225Z,1.18
2023-03-14T04:37:20.209Z,1.00
2023-03-14T04:38:23.142Z,1.10
2023-03-14T04:39:26.708Z,1.90
2023-03-14T04:40:32.754Z,1.90
2023-03-14T04:41:38.919Z,1.90
2023-03-14T04:42:42.172Z,0.90
2023-03-14T04:43:45.670Z,1.70
2023-03-14T04:44:50.494Z,1.00
2023-03-14T04:45:55.667Z,0.70
2023-03-14T04:46:58.457Z,1.00
2023-03-14T04:48:02.011Z,2.10
2023-03-14T04:49:05.983Z,1.80
2023-03-14T04:50:10.111Z,1.82
2023-03-14T04:51:13.109Z,1.80
2023-03-14T04:52:16.442Z,1.80
2023-03-14T04:53:19.866Z,1.50
2023-03-14T04:54:24.690Z,0.80
2023-03-14T04:55:29.430Z,1.10
2023-03-14T04:56:32.714Z,1.40
2023-03-14T04:57:36.602Z,0.70
2023-03-14T04:58:39.149Z,1.40
2023-03-14T04:59:42.901Z,2.00
2023-03-14T05:00:50.770Z,1.70
2023-03-14T05:02:11.740Z,1.20
2023-03-14T05:03:17.949Z,1.10
2023-03-14T05:05:41.569Z,2.40
2023-03-14T05:06:52.087Z,1.10
2023-03-14T05:08:12.928Z,2.20
2023-03-14T05:09:26.646Z,1.70
2023-03-14T05:10:31.118Z,1.50
2023-03-14T05:11:41.336Z,1.70
2023-03-14T05:13:02.231Z,1.00
2023-03-14T05:14:18.723Z,1.10
2023-03-14T05:15:30.127Z,0.80
2023-03-14T05:16:44.480Z,1.20
2023-03-14T05:19:02.700Z,1.80
2023-03-14T05:20:13.907Z,1.00
2023-03-14T05:22:34.716Z,1.40
2023-03-14T05:23:48.267Z,1.70
2023-03-14T05:24:54.545Z,1.70
2023-03-14T05:27:14.591Z,1.80
2023-03-14T05:29:40.624Z,1.60
2023-03-14T05:31:01.532Z,1.40
2023-03-14T05:32:18.882Z,0.70
2023-03-14T05:34:47.856Z,0.70
2023-03-14T05:35:55.696Z,1.20
2023-03-14T05:37:18.879Z,1.70
2023-03-14T05:38:26.138Z,2.20
2023-03-14T05:39:33.434Z,1.80
2023-03-14T05:40:51.084Z,1.30
2023-03-14T05:42:13.819Z,2.10
2023-03-14T05:43:21.594Z,1.80
2023-03-14T05:44:31.718Z,2.20
2023-03-14T05:47:08.122Z,2.00
2023-03-14T05:48:30.673Z,1.20
2023-03-14T05:49:43.947Z,2.10
2023-03-14T05:50:57.370Z,2.20
2023-03-14T05:52:14.140Z,1.50
2023-03-14T05:54:34.794Z,1.00
2023-03-14T05:55:45.490Z,1.80
2023-03-14T05:56:50.118Z,2.40
2023-03-14T05:57:55.043Z,2.40
2023-03-14T05:59:01.428Z,2.20
2023-03-14T06:00:15.081Z,3.00
2023-03-14T06:01:25.803Z,1.70
2023-03-14T06:02:39.107Z,3.20
2023-03-14T06:03:45.727Z,2.50
2023-03-14T06:04:48.680Z,2.40
2023-03-14T06:05:52.681Z,2.90
2023-03-14T06:06:56.557Z,2.20
2023-03-14T06:07:59.836Z,2.36
2023-03-14T06:09:03.470Z,1.80
2023-03-14T06:10:09.586Z,2.20
2023-03-14T06:11:12.369Z,2.70
2023-03-14T06:12:15.306Z,2.30
2023-03-14T06:13:19.145Z,2.20
2023-03-14T06:14:23.652Z,1.80
2023-03-14T06:15:26.682Z,2.20
2023-03-14T06:16:30.386Z,2.40
2023-03-14T06:17:32.953Z,2.64
2023-03-14T06:18:37.805Z,2.70
2023-03-14T06:19:43.417Z,2.10
2023-03-14T06:20:47.901Z,2.20
2023-03-14T06:21:53.394Z,1.50
2023-03-14T06:22:58.014Z,2.50
2023-03-14T06:24:01.032Z,2.20
2023-03-14T06:25:06.870Z,2.90
2023-03-14T06:26:12.228Z,2.40
2023-03-14T06:27:16.613Z,2.60
2023-03-14T06:28:19.832Z,2.40
2023-03-14T06:29:22.775Z,2.90
2023-03-14T06:30:25.498Z,3.40
2023-03-14T06:31:28.517Z,2.80
2023-03-14T06:32:33.133Z,2.70
2023-03-14T06:33:37.593Z,2.20
2023-03-14T06:34:41.930Z,2.90
2023-03-14T06:35:45.463Z,2.70
2023-03-14T06:36:49.295Z,2.70
2023-03-14T06:37:51.717Z,1.70
2023-03-14T06:38:54.464Z,2.70
2023-03-14T06:39:57.812Z,3.00
2023-03-14T06:41:06.381Z,2.00
2023-03-14T06:42:13.791Z,2.60
2023-03-14T06:43:17.926Z,2.90
2023-03-14T06:44:22.134Z,2.20
2023-03-14T06:45:25.720Z,2.90
2023-03-14T06:46:28.582Z,3.50
2023-03-14T06:47:31.151Z,1.20
2023-03-14T06:48:34.837Z,3.90
2023-03-14T06:49:40.049Z,2.50
2023-03-14T06:50:43.705Z,3.00
2023-03-14T06:51:46.415Z,2.80
2023-03-14T06:52:50.776Z,3.30
2023-03-14T06:53:56.289Z,1.80
2023-03-14T06:55:00.933Z,2.90
2023-03-14T06:56:05.236Z,3.18
2023-03-14T06:57:08.790Z,2.30
2023-03-14T06:58:11.501Z,3.00
2023-03-14T06:59:19.230Z,3.00
2023-03-14T07:00:24.695Z,3.30
2023-03-14T07:01:30.272Z,3.80
2023-03-14T07:02:42.583Z,3.90
2023-03-14T07:03:42.720Z,3.70
2023-03-14T07:04:46.715Z,2.90
2023-03-14T07:05:49.895Z,3.73
2023-03-14T07:06:52.375Z,2.70
2023-03-14T07:07:54.832Z,3.80
2023-03-14T07:08:58.609Z,3.50
2023-03-14T07:10:01.566Z,3.60
2023-03-14T07:11:04.971Z,2.18
2023-03-14T07:12:09.356Z,3.80
2023-03-14T07:13:13.006Z,4.00
2023-03-14T07:14:23.945Z,2.70
2023-03-14T07:15:27.812Z,3.50
2023-03-14T07:16:34.207Z,2.70
2023-03-14T07:17:37.823Z,2.30
2023-03-14T07:18:41.071Z,2.70
2023-03-14T07:19:44.906Z,2.60
2023-03-14T07:20:49.843Z,3.60
2023-03-14T07:21:53.940Z,2.30
2023-03-14T07:23:00.386Z,2.80
2023-03-14T07:24:06.593Z,3.40
2023-03-14T07:25:12.802Z,3.90
2023-03-14T07:26:16.760Z,2.50
2023-03-14T07:27:21.531Z,2.80
2023-03-14T07:28:26.179Z,2.80
2023-03-14T07:29:37.541Z,3.30
2023-03-14T07:30:42.159Z,4.70
2023-03-14T07:31:49.827Z,2.80
2023-03-14T07:32:55.293Z,2.70
2023-03-14T07:34:00.130Z,3.20
2023-03-14T07:35:05.562Z,3.50
2023-03-14T07:36:11.856Z,1.70
2023-03-14T07:37:16.117Z,2.80
2023-03-14T07:38:22.359Z,2.60
2023-03-14T07:39:25.938Z,3.40
2023-03-14T07:40:30.816Z,3.70
2023-03-14T07:41:33.547Z,3.00
2023-03-14T07:42:55.656Z,1.60
2023-03-14T07:44:00.427Z,3.70
2023-03-14T07:45:05.249Z,1.30
2023-03-14T07:46:09.256Z,3.40
2023-03-14T07:47:16.616Z,1.50
2023-03-14T07:48:20.350Z,3.30
2023-03-14T07:49:24.570Z,3.80
2023-03-14T07:50:27.766Z,2.70
2023-03-14T07:51:30.912Z,3.40
2023-03-14T07:52:33.774Z,3.50
2023-03-14T07:53:36.827Z,2.82
2023-03-14T07:54:39.898Z,3.20
2023-03-14T07:55:44.206Z,2.82
2023-03-14T07:56:48.176Z,3.70
2023-03-14T07:57:51.157Z,2.70
2023-03-14T07:58:54.130Z,3.30
2023-03-14T07:59:56.542Z,2.82
2023-03-14T08:00:59.189Z,2.70
2023-03-14T08:02:01.733Z,2.90
2023-03-14T08:03:05.495Z,3.10
2023-03-14T08:04:10.510Z,3.00
2023-03-14T08:05:13.076Z,3.10
2023-03-14T08:06:17.300Z,3.20
2023-03-14T08:07:20.766Z,3.30
2023-03-14T08:08:25.909Z,4.50
2023-03-14T08:09:28.787Z,4.20
2023-03-14T08:10:32.417Z,4.10
2023-03-14T08:11:35.474Z,3.60
2023-03-14T08:12:38.673Z,3.70
2023-03-14T08:13:41.392Z,4.70
2023-03-14T08:14:46.030Z,3.20
2023-03-14T08:15:50.692Z,4.10
2023-03-14T08:16:53.279Z,4.70
2023-03-14T08:17:56.777Z,3.36
2023-03-14T08:19:01.479Z,4.20
2023-03-14T08:20:07.505Z,3.50
2023-03-14T08:21:10.396Z,4.20
2023-03-14T08:22:13.176Z,3.00
2023-03-14T08:23:15.868Z,4.20
2023-03-14T08:24:18.884Z,4.30
2023-03-14T08:25:23.483Z,4.09
2023-03-14T08:26:27.846Z,4.10
2023-03-14T08:27:31.480Z,3.90
2023-03-14T08:28:35.347Z,4.10
2023-03-14T08:29:38.293Z,4.20
2023-03-14T08:30:40.897Z,5.00
2023-03-14T08:31:44.748Z,4.30
2023-03-14T08:32:47.533Z,3.30
2023-03-14T08:33:52.432Z,2.73
2023-03-14T08:34:55.232Z,4.70
2023-03-14T08:36:00.029Z,3.64
2023-03-14T08:37:04.381Z,3.60
2023-03-14T08:38:07.311Z,2.90
2023-03-14T08:39:12.392Z,4.60
2023-03-14T08:40:17.234Z,4.10
2023-03-14T08:41:19.892Z,3.40
2023-03-14T08:42:24.040Z,3.60
2023-03-14T08:43:29.089Z,4.00
2023-03-14T08:44:31.909Z,4.10
2023-03-14T08:45:37.567Z,4.00
2023-03-14T08:46:40.146Z,3.10
2023-03-14T08:47:44.125Z,4.64
2023-03-14T08:48:48.091Z,3.90
2023-03-14T08:49:50.875Z,4.40
2023-03-14T08:50:53.700Z,3.64
2023-03-14T08:51:57.108Z,0.80
2023-03-14T08:53:01.272Z,4.00
2023-03-14T08:54:05.477Z,5.30
2023-03-14T08:55:09.748Z,4.70
2023-03-14T08:56:15.781Z,3.60
2023-03-14T08:57:18.244Z,3.10
2023-03-14T08:58:21.049Z,3.40
2023-03-14T08:59:24.363Z,3.64
2023-03-14T09:00:28.889Z,3.30
2023-03-14T09:01:32.220Z,2.80
2023-03-14T09:02:34.899Z,3.90
2023-03-14T09:03:37.956Z,3.80
2023-03-14T09:04:41.055Z,3.70
2023-03-14T09:05:43.608Z,3.90
2023-03-14T09:06:46.720Z,3.60
2023-03-14T09:07:49.317Z,4.00
2023-03-14T09:08:51.851Z,3.20
2023-03-14T09:09:54.324Z,4.20
2023-03-14T09:10:58.811Z,4.60
2023-03-14T09:12:02.463Z,5.60
2023-03-14T09:13:06.235Z,5.70
2023-03-14T09:14:08.883Z,4.50
2023-03-14T09:15:13.379Z,4.90
2023-03-14T09:16:16.754Z,4.50
2023-03-14T09:17:20.412Z,4.70
2023-03-14T09:18:23.139Z,4.70
2023-03-14T09:19:25.738Z,5.30
2023-03-14T09:20:28.944Z,5.20
2023-03-14T09:21:32.639Z,5.20
2023-03-14T09:22:38.230Z,4.80
2023-03-14T09:23:42.412Z,5.70
2023-03-14T09:24:44.921Z,5.30
2023-03-14T09:25:47.985Z,5.73
2023-03-14T09:26:50.618Z,5.55
2023-03-14T09:27:53.148Z,4.90
2023-03-14T09:28:58.554Z,5.20
2023-03-14T09:30:01.965Z,6.00
2023-03-14T09:31:09.096Z,5.70
2023-03-14T09:32:13.304Z,5.10
2023-03-14T09:33:16.913Z,6.00
2023-03-14T09:34:19.777Z,5.30
2023-03-14T09:35:23.017Z,5.64
2023-03-14T09:36:26.744Z,5.50
2023-03-14T09:37:30.268Z,4.90
2023-03-14T09:38:33.548Z,6.00
2023-03-14T09:39:36.420Z,4.10
2023-03-14T09:40:39.255Z,3.20
2023-03-14T09:41:43.903Z,4.55
2023-03-14T09:42:49.124Z,5.90
2023-03-14T09:43:58.101Z,5.80
2023-03-14T09:45:02.511Z,4.40
2023-03-14T09:46:06.635Z,5.80
2023-03-14T09:47:12.178Z,6.00
2023-03-14T09:48:23.179Z,5.40
2023-03-14T09:50:43.931Z,6.30
2023-03-14T09:51:48.638Z,5.10
2023-03-14T09:52:53.439Z,6.60
2023-03-14T09:53:57.723Z,4.20
2023-03-14T09:56:30.747Z,6.70
2023-03-14T09:57:34.621Z,5.50
2023-03-14T09:58:37.139Z,5.50
2023-03-14T09:59:40.041Z,6.20
2023-03-14T10:00:42.705Z,5.70
2023-03-14T10:01:45.171Z,4.70
2023-03-14T10:02:57.311Z,5.50
2023-03-14T10:04:04.112Z,5.90
2023-03-14T10:06:24.521Z,5.90
2023-03-14T10:07:33.005Z,5.30
2023-03-14T10:09:53.262Z,5.80
2023-03-14T10:10:57.919Z,5.10
2023-03-14T10:12:11.538Z,5.20
2023-03-14T10:13:15.927Z,6.00
2023-03-14T10:15:50.247Z,6.10
2023-03-14T10:16:52.736Z,2.80
2023-03-14T10:17:55.277Z,5.00
2023-03-14T10:19:05.794Z,6.20
2023-03-14T10:20:31.865Z,5.30
2023-03-14T10:22:58.600Z,6.20
2023-03-14T10:24:14.020Z,6.18
2023-03-14T10:25:20.460Z,6.30
2023-03-14T10:26:28.051Z,6.70
2023-03-14T10:28:48.102Z,6.00
2023-03-14T10:30:06.746Z,6.30
2023-03-14T10:31:09.484Z,7.00
2023-03-14T10:32:17.264Z,7.30
2023-03-14T10:33:28.000Z,6.40
2023-03-14T10:34:32.806Z,7.00
2023-03-14T10:35:36.032Z,8.10
2023-03-14T10:36:39.019Z,7.60
2023-03-14T10:38:02.286Z,9.00
2023-03-14T10:39:21.098Z,5.60
2023-03-14T10:40:27.370Z,8.30
2023-03-14T10:41:31.448Z,7.60
2023-03-14T10:42:35.463Z,6.30
2023-03-14T10:43:39.365Z,8.70
2023-03-14T10:44:42.350Z,8.30
2023-03-14T10:45:48.127Z,7.60
2023-03-14T10:46:59.507Z,7.40
2023-03-14T10:48:23.820Z,8.10
2023-03-14T10:50:57.245Z,8.90
2023-03-14T10:52:11.796Z,7.20
2023-03-14T10:53:17.379Z,7.20
2023-03-14T10:54:21.966Z,6.20
2023-03-14T10:55:27.347Z,6.90
2023-03-14T10:56:37.188Z,7.20
2023-03-14T10:58:57.588Z,6.10
2023-03-14T11:00:00.353Z,5.70
2023-03-14T11:02:56.783Z,6.80
2023-03-14T11:04:12.604Z,5.70
2023-03-14T11:05:18.853Z,7.30
2023-03-14T11:06:30.938Z,6.60
2023-03-14T11:07:41.651Z,6.20
2023-03-14T11:08:48.626Z,5.40
2023-03-14T11:09:57.254Z,6.80
2023-03-14T11:12:53.900Z,7.00
2023-03-14T11:14:11.883Z,7.10
2023-03-14T11:15:24.175Z,6.80
2023-03-14T11:16:43.287Z,6.80
2023-03-14T11:19:35.739Z,6.50
2023-03-14T11:20:53.535Z,5.00
2023-03-14T11:22:15.391Z,6.70
2023-03-14T11:23:26.283Z,5.80
2023-03-14T11:24:44.983Z,6.30
2023-03-14T11:27:29.411Z,6.40
2023-03-14T11:28:37.647Z,5.40
2023-03-14T11:29:52.978Z,5.50
2023-03-14T11:30:58.269Z,5.90
2023-03-14T11:32:04.980Z,6.30
2023-03-14T11:35:00.224Z,6.80
2023-03-14T11:36:11.642Z,6.10
2023-03-14T11:37:23.891Z,6.10
2023-03-14T11:38:49.628Z,6.40
2023-03-14T11:39:55.989Z,6.80
2023-03-14T11:40:59.437Z,7.40
2023-03-14T11:42:04.083Z,5.20
2023-03-14T11:43:11.062Z,7.60
2023-03-14T11:45:37.366Z,4.90
2023-03-14T11:46:42.567Z,5.50
2023-03-14T11:47:45.274Z,5.90
2023-03-14T11:48:57.714Z,7.36
2023-03-14T11:50:09.855Z,6.60
2023-03-14T11:52:40.864Z,8.00
2023-03-14T11:53:53.336Z,6.60
2023-03-14T11:55:02.338Z,6.70
2023-03-14T11:56:26.558Z,5.30
2023-03-14T11:57:29.438Z,5.40
2023-03-14T11:58:34.505Z,7.00
2023-03-14T12:00:00.601Z,6.40
2023-03-14T12:01:07.101Z,6.00
2023-03-14T12:02:14.400Z,4.70
2023-03-14T12:04:58.466Z,5.90
2023-03-14T12:06:04.715Z,4.40
2023-03-14T12:07:20.182Z,5.50
2023-03-14T12:08:48.862Z,5.30
2023-03-14T12:09:51.549Z,5.70
2023-03-14T12:10:56.130Z,5.80
2023-03-14T12:12:01.503Z,4.20
2023-03-14T12:13:04.602Z,5.60
2023-03-14T12:14:22.795Z,5.00
2023-03-14T12:15:26.828Z,5.00
2023-03-14T12:16:41.832Z,4.50
2023-03-14T12:17:46.560Z,4.90
2023-03-14T12:18:49.252Z,5.40
2023-03-14T12:20:07.185Z,6.64
2023-03-14T12:21:11.675Z,4.10
2023-03-14T12:22:37.327Z,4.80
2023-03-14T12:23:45.179Z,4.20
2023-03-14T12:24:57.971Z,4.10
2023-03-14T12:26:13.394Z,4.00
2023-03-14T12:27:36.320Z,3.70
2023-03-14T12:28:40.215Z,3.40
2023-03-14T12:30:02.505Z,3.80
2023-03-14T12:31:32.500Z,3.50
2023-03-14T12:32:35.228Z,3.00
2023-03-14T12:33:37.863Z,1.80
2023-03-14T12:34:43.827Z,3.60
2023-03-14T12:35:51.563Z,1.00
2023-03-14T12:38:28.758Z,4.30
2023-03-14T12:39:37.829Z,3.70
2023-03-14T12:42:13.349Z,3.60
2023-03-14T12:43:29.839Z,4.00
2023-03-14T12:44:43.360Z,3.40
2023-03-14T12:46:08.648Z,3.20
2023-03-14T12:47:21.041Z,2.50
2023-03-14T12:48:24.366Z,2.50
2023-03-14T12:50:46.845Z,2.90
2023-03-14T12:51:52.656Z,2.80
2023-03-14T12:53:02.086Z,2.30
2023-03-14T12:54:32.710Z,2.30
2023-03-14T12:55:57.398Z,2.30
2023-03-14T12:57:23.564Z,3.30
2023-03-14T12:59:56.869Z,3.50
2023-03-14T13:01:04.716Z,2.40
2023-03-14T13:02:11.574Z,2.90
2023-03-14T13:03:25.724Z,3.60
2023-03-14T13:06:02.591Z,2.00
2023-03-14T13:07:05.083Z,1.90
2023-03-14T13:08:11.275Z,3.09
2023-03-14T13:09:32.787Z,2.70
2023-03-14T13:10:48.857Z,1.50
2023-03-14T13:11:51.352Z,1.90
2023-03-14T13:13:04.831Z,2.00
2023-03-14T13:14:08.801Z,2.20
2023-03-14T13:15:25.609Z,0.20
2023-03-14T13:16:32.614Z,2.60
2023-03-14T13:17:37.314Z,1.00
2023-03-14T13:18:40.886Z,2.20
2023-03-14T13:19:43.861Z,1.90
2023-03-14T13:20:52.345Z,2.00
2023-03-14T13:22:04.192Z,2.00
2023-03-14T13:24:25.843Z,2.70
2023-03-14T13:25:35.863Z,2.50
2023-03-14T13:26:44.083Z,2.40
2023-03-14T13:27:47.679Z,2.40
2023-03-14T13:28:50.627Z,2.00
2023-03-14T13:29:54.161Z,2.00
2023-03-14T13:31:02.327Z,2.50
2023-03-14T13:32:23.036Z,1.80
2023-03-14T13:33:25.725Z,1.80
2023-03-14T13:34:33.485Z,2.30
2023-03-14T13:36:57.244Z,1.50
2023-03-14T13:38:17.834Z,2.00
2023-03-14T13:39:23.035Z,0.80
2023-03-14T13:41:41.211Z,1.70
2023-03-14T13:42:44.809Z,2.50
2023-03-14T13:43:49.253Z,2.70
2023-03-14T13:44:53.838Z,2.50
2023-03-14T13:46:07.700Z,2.30
2023-03-14T13:48:31.106Z,3.50
2023-03-14T13:49:35.904Z,2.30
2023-03-14T13:50:38.420Z,2.80
2023-03-14T13:51:42.105Z,1.10
2023-03-14T13:52:45.090Z,2.64
2023-03-14T13:55:06.257Z,2.20
2023-03-14T13:56:12.886Z,2.90
2023-03-14T13:57:15.300Z,3.20
2023-03-14T13:58:25.412Z,4.40
2023-03-14T13:59:30.257Z,4.80
2023-03-14T14:00:35.126Z,6.80
2023-03-14T14:01:39.381Z,5.40
2023-03-14T14:02:42.274Z,7.00
2023-03-14T14:03:52.788Z,7.40
2023-03-14T14:04:56.543Z,4.00
2023-03-14T14:05:59.162Z,5.40
2023-03-14T14:07:02.139Z,3.82
2023-03-14T14:08:04.929Z,4.18
2023-03-14T14:10:26.734Z,5.60
2023-03-14T14:13:01.510Z,6.50
2023-03-14T14:14:06.133Z,7.30
2023-03-14T14:15:12.092Z,8.40
2023-03-14T14:16:15.436Z,6.50
2023-03-14T14:18:40.249Z,7.70
2023-03-14T14:19:42.681Z,7.40
2023-03-14T14:20:48.096Z,6.30
2023-03-14T14:21:51.717Z,5.80
2023-03-14T14:22:55.274Z,7.70
2023-03-14T14:23:59.351Z,6.10
2023-03-14T14:25:02.824Z,5.80
2023-03-14T14:27:35.251Z,5.20
2023-03-14T14:28:39.695Z,5.00
2023-03-14T14:29:42.249Z,6.70
2023-03-14T14:30:45.744Z,4.91
2023-03-14T14:31:49.238Z,5.40
2023-03-14T14:32:52.816Z,3.60
2023-03-14T14:34:00.933Z,5.91
2023-03-14T14:35:04.473Z,7.90
2023-03-14T14:37:31.949Z,10.90
2023-03-14T14:38:39.445Z,11.90
2023-03-14T14:39:42.880Z,11.40
2023-03-14T14:40:48.419Z,12.70
2023-03-14T14:41:52.129Z,13.90
2023-03-14T14:42:55.359Z,14.00
2023-03-14T14:43:58.735Z,14.10
2023-03-14T14:45:03.295Z,13.90
2023-03-14T14:46:08.440Z,14.50
2023-03-14T14:47:15.786Z,14.30
2023-03-14T14:48:21.365Z,12.60
2023-03-14T14:49:30.583Z,13.50
2023-03-14T14:53:34.058Z,10.60
2023-03-14T14:54:40.369Z,7.30
2023-03-14T14:55:42.769Z,9.80
2023-03-14T14:56:53.339Z,9.36
2023-03-14T14:57:58.123Z,11.70
2023-03-14T14:59:04.353Z,10.80
2023-03-14T15:00:14.689Z,10.50
2023-03-14T15:01:20.060Z,4.60
2023-03-14T15:02:35.152Z,10.30
2023-03-14T15:03:38.010Z,8.60
2023-03-14T15:04:41.749Z,10.45
2023-03-14T15:05:45.615Z,8.40
2023-03-14T15:06:52.324Z,8.00
2023-03-14T15:07:56.187Z,8.10
2023-03-14T15:09:00.057Z,8.10
2023-03-14T15:10:04.730Z,2.00
2023-03-14T15:11:10.267Z,8.10
2023-03-14T15:12:13.099Z,7.40
2023-03-14T15:13:15.622Z,7.73
2023-03-14T15:14:18.286Z,5.80
2023-03-14T15:15:22.987Z,7.40
2023-03-14T15:16:31.267Z,4.80
2023-03-14T15:17:35.131Z,6.80
2023-03-14T15:18:38.291Z,7.30
2023-03-14T15:19:41.049Z,5.60
2023-03-14T15:20:45.354Z,6.30
2023-03-14T15:21:49.075Z,7.10
2023-03-14T15:22:53.913Z,3.60
2023-03-14T15:23:57.168Z,5.50
2023-03-14T15:24:59.782Z,5.90
2023-03-14T15:26:04.470Z,6.30
2023-03-14T15:27:15.607Z,5.80
2023-03-14T15:29:34.765Z,6.20
2023-03-14T15:30:37.492Z,5.30
2023-03-14T15:31:40.879Z,6.00
2023-03-14T15:32:43.760Z,5.90
2023-03-14T15:33:47.943Z,5.40
2023-03-14T15:34:50.844Z,5.70
2023-03-14T15:35:55.710Z,5.64
2023-03-14T15:37:00.524Z,6.30
2023-03-14T15:38:03.478Z,5.50
2023-03-14T15:39:07.789Z,5.20
2023-03-14T15:40:14.804Z,5.00
2023-03-14T15:41:18.274Z,4.50
2023-03-14T15:42:22.677Z,5.20
2023-03-14T15:43:26.398Z,3.40
2023-03-14T15:44:30.312Z,3.30
2023-03-14T15:45:41.928Z,5.40
2023-03-14T15:46:49.922Z,5.40
2023-03-14T15:47:54.547Z,3.70
2023-03-14T15:48:57.141Z,4.20
2023-03-14T15:50:00.809Z,2.90
2023-03-14T15:51:04.193Z,3.80